sensor_id;sensor_type;location;lat;lon;timestamp;P1;durP1;ratioP1;P2;durP2;ratioP2
16450;SDS011;12243;42.708;23.310;2023-02-28T00:02:11;17.90;;;13.50;;
16450;SDS011;12243;42.708;23.310;2023-02-28T00:04:38;16.60;;;13.07;;
16450;SDS011;12243;42.708;23.310;2023-02-28T00:07:05;16.00;;;12.43;;
16450;SDS011;12243;42.708;23.310;2023-02-28T00:09:32;17.33;;;12.97;;
16450;SDS011;12243;42.708;23.310;2023-02-28T00:12:00;16.90;;;14.10;;
16450;SDS011;12243;42.708;23.310;2023-02-28T00:14:40;18.93;;;12.97;;
16450;SDS011;12243;42.708;23.310;2023-02-28T00:17:07;16.80;;;12.27;;
16450;SDS011;12243;42.708;23.310;2023-02-28T00:19:34;17.27;;;12.57;;
16450;SDS011;12243;42.708;23.310;2023-02-28T00:22:01;17.73;;;13.57;;
16450;SDS011;12243;42.708;23.310;2023-02-28T00:24:28;18.80;;;14.30;;
16450;SDS011;12243;42.708;23.310;2023-02-28T00:26:55;18.70;;;13.50;;
16450;SDS011;12243;42.708;23.310;2023-02-28T00:29:23;18.30;;;13.77;;
16450;SDS011;12243;42.708;23.310;2023-02-28T00:31:50;19.03;;;14.67;;
16450;SDS011;12243;42.708;23.310;2023-02-28T00:34:17;18.97;;;14.80;;
16450;SDS011;12243;42.708;23.310;2023-02-28T00:36:45;24.20;;;16.23;;
16450;SDS011;12243;42.708;23.310;2023-02-28T00:39:15;25.87;;;16.83;;
16450;SDS011;12243;42.708;23.310;2023-02-28T00:41:42;22.27;;;16.67;;
16450;SDS011;12243;42.708;23.310;2023-02-28T00:44:10;24.83;;;17.30;;
16450;SDS011;12243;42.708;23.310;2023-02-28T00:46:39;22.80;;;16.77;;
16450;SDS011;12243;42.708;23.310;2023-02-28T00:49:06;24.80;;;16.33;;
16450;SDS011;12243;42.708;23.310;2023-02-28T00:51:34;23.23;;;17.13;;
16450;SDS011;12243;42.708;23.310;2023-02-28T00:54:01;25.27;;;18.33;;
16450;SDS011;12243;42.708;23.310;2023-02-28T00:56:28;22.80;;;16.50;;
16450;SDS011;12243;42.708;23.310;2023-02-28T00:58:55;24.27;;;17.07;;
16450;SDS011;12243;42.708;23.310;2023-02-28T01:01:22;27.63;;;17.33;;
16450;SDS011;12243;42.708;23.310;2023-02-28T01:03:50;25.10;;;18.63;;
16450;SDS011;12243;42.708;23.310;2023-02-28T01:06:17;23.97;;;16.63;;
16450;SDS011;12243;42.708;23.310;2023-02-28T01:08:44;21.47;;;16.07;;
16450;SDS011;12243;42.708;23.310;2023-02-28T01:11:12;21.97;;;16.77;;
16450;SDS011;12243;42.708;23.310;2023-02-28T01:13:41;24.53;;;17.07;;
16450;SDS011;12243;42.708;23.310;2023-02-28T01:16:11;22.83;;;16.70;;
16450;SDS011;12243;42.708;23.310;2023-02-28T01:18:39;28.43;;;18.87;;
16450;SDS011;12243;42.708;23.310;2023-02-28T01:21:09;30.53;;;21.50;;
16450;SDS011;12243;42.708;23.310;2023-02-28T01:23:37;31.23;;;21.13;;
16450;SDS011;12243;42.708;23.310;2023-02-28T01:26:05;31.97;;;22.20;;
16450;SDS011;12243;42.708;23.310;2023-02-28T01:28:33;34.93;;;21.53;;
16450;SDS011;12243;42.708;23.310;2023-02-28T01:31:00;30.60;;;20.27;;
16450;SDS011;12243;42.708;23.310;2023-02-28T01:33:28;33.23;;;22.00;;
16450;SDS011;12243;42.708;23.310;2023-02-28T01:35:58;38.23;;;23.67;;
16450;SDS011;12243;42.708;23.310;2023-02-28T01:41:28;31.77;;;19.77;;
16450;SDS011;12243;42.708;23.310;2023-02-28T01:44:01;30.00;;;18.93;;
16450;SDS011;12243;42.708;23.310;2023-02-28T01:46:30;29.57;;;18.20;;
16450;SDS011;12243;42.708;23.310;2023-02-28T01:49:00;26.43;;;17.77;;
16450;SDS011;12243;42.708;23.310;2023-02-28T01:51:33;27.23;;;19.37;;
16450;SDS011;12243;42.708;23.310;2023-02-28T01:54:07;27.20;;;17.47;;
16450;SDS011;12243;42.708;23.310;2023-02-28T01:56:40;27.70;;;18.10;;
16450;SDS011;12243;42.708;23.310;2023-02-28T01:59:12;23.20;;;15.90;;
16450;SDS011;12243;42.708;23.310;2023-02-28T02:01:44;28.60;;;17.57;;
16450;SDS011;12243;42.708;23.310;2023-02-28T02:04:11;28.67;;;18.03;;
16450;SDS011;12243;42.708;23.310;2023-02-28T02:06:42;26.23;;;15.70;;
16450;SDS011;12243;42.708;23.310;2023-02-28T02:09:12;28.50;;;17.17;;
16450;SDS011;12243;42.708;23.310;2023-02-28T02:11:39;28.70;;;18.07;;
16450;SDS011;12243;42.708;23.310;2023-02-28T02:14:11;26.70;;;17.40;;
16450;SDS011;12243;42.708;23.310;2023-02-28T02:16:58;26.20;;;17.27;;
16450;SDS011;12243;42.708;23.310;2023-02-28T02:19:37;31.03;;;17.37;;
16450;SDS011;12243;42.708;23.310;2023-02-28T02:22:21;26.87;;;17.30;;
16450;SDS011;12243;42.708;23.310;2023-02-28T02:25:12;28.37;;;18.37;;
16450;SDS011;12243;42.708;23.310;2023-02-28T02:36:47;29.67;;;16.90;;
16450;SDS011;12243;42.708;23.310;2023-02-28T02:39:19;30.30;;;18.33;;
16450;SDS011;12243;42.708;23.310;2023-02-28T02:41:54;28.40;;;18.87;;
16450;SDS011;12243;42.708;23.310;2023-02-28T02:44:27;33.27;;;19.73;;
16450;SDS011;12243;42.708;23.310;2023-02-28T02:47:02;32.97;;;19.47;;
16450;SDS011;12243;42.708;23.310;2023-02-28T02:49:36;33.27;;;19.43;;
16450;SDS011;12243;42.708;23.310;2023-02-28T02:52:07;33.73;;;19.60;;
16450;SDS011;12243;42.708;23.310;2023-02-28T02:54:37;31.50;;;19.73;;
16450;SDS011;12243;42.708;23.310;2023-02-28T02:57:07;30.53;;;17.53;;
16450;SDS011;12243;42.708;23.310;2023-02-28T02:59:38;32.17;;;18.47;;
16450;SDS011;12243;42.708;23.310;2023-02-28T03:02:08;31.33;;;17.87;;
16450;SDS011;12243;42.708;23.310;2023-02-28T03:04:42;30.47;;;19.23;;
16450;SDS011;12243;42.708;23.310;2023-02-28T03:07:12;32.20;;;18.63;;
16450;SDS011;12243;42.708;23.310;2023-02-28T03:09:40;32.83;;;19.30;;
16450;SDS011;12243;42.708;23.310;2023-02-28T03:12:08;27.33;;;17.33;;
16450;SDS011;12243;42.708;23.310;2023-02-28T03:14:40;29.40;;;17.90;;
16450;SDS011;12243;42.708;23.310;2023-02-28T03:17:19;26.97;;;17.53;;
16450;SDS011;12243;42.708;23.310;2023-02-28T03:20:03;25.67;;;16.90;;
16450;SDS011;12243;42.708;23.310;2023-02-28T03:22:41;26.17;;;16.47;;
16450;SDS011;12243;42.708;23.310;2023-02-28T03:25:16;24.00;;;16.53;;
16450;SDS011;12243;42.708;23.310;2023-02-28T03:27:51;26.43;;;17.50;;
16450;SDS011;12243;42.708;23.310;2023-02-28T03:30:24;35.40;;;21.57;;
16450;SDS011;12243;42.708;23.310;2023-02-28T03:32:55;25.77;;;16.27;;
16450;SDS011;12243;42.708;23.310;2023-02-28T03:35:27;32.07;;;18.97;;
16450;SDS011;12243;42.708;23.310;2023-02-28T03:38:00;39.60;;;26.27;;
16450;SDS011;12243;42.708;23.310;2023-02-28T03:40:32;48.63;;;28.57;;
16450;SDS011;12243;42.708;23.310;2023-02-28T03:43:04;33.63;;;20.83;;
16450;SDS011;12243;42.708;23.310;2023-02-28T03:45:36;28.90;;;18.67;;
16450;SDS011;12243;42.708;23.310;2023-02-28T03:48:07;26.60;;;16.93;;
16450;SDS011;12243;42.708;23.310;2023-02-28T03:50:40;28.03;;;17.53;;
16450;SDS011;12243;42.708;23.310;2023-02-28T03:53:11;29.43;;;18.43;;
16450;SDS011;12243;42.708;23.310;2023-02-28T03:55:41;26.80;;;17.70;;
16450;SDS011;12243;42.708;23.310;2023-02-28T03:58:12;23.83;;;16.33;;
16450;SDS011;12243;42.708;23.310;2023-02-28T04:00:47;21.77;;;15.30;;
16450;SDS011;12243;42.708;23.310;2023-02-28T04:03:21;25.83;;;15.23;;
16450;SDS011;12243;42.708;23.310;2023-02-28T04:05:50;21.37;;;15.37;;
16450;SDS011;12243;42.708;23.310;2023-02-28T04:08:19;26.60;;;15.63;;
16450;SDS011;12243;42.708;23.310;2023-02-28T04:10:49;24.17;;;15.33;;
16450;SDS011;12243;42.708;23.310;2023-02-28T04:13:19;21.73;;;14.13;;
16450;SDS011;12243;42.708;23.310;2023-02-28T04:15:46;18.53;;;12.83;;
16450;SDS011;12243;42.708;23.310;2023-02-28T04:18:13;21.63;;;15.13;;
16450;SDS011;12243;42.708;23.310;2023-02-28T04:20:40;28.47;;;16.13;;
16450;SDS011;12243;42.708;23.310;2023-02-28T04:23:10;27.07;;;17.27;;
16450;SDS011;12243;42.708;23.310;2023-02-28T04:25:37;32.30;;;19.30;;
16450;SDS011;12243;42.708;23.310;2023-02-28T04:28:05;29.33;;;18.20;;
16450;SDS011;12243;42.708;23.310;2023-02-28T04:30:33;28.20;;;18.00;;
16450;SDS011;12243;42.708;23.310;2023-02-28T04:33:00;26.53;;;16.90;;
16450;SDS011;12243;42.708;23.310;2023-02-28T04:35:27;28.73;;;18.10;;
16450;SDS011;12243;42.708;23.310;2023-02-28T04:37:53;25.90;;;16.47;;
16450;SDS011;12243;42.708;23.310;2023-02-28T04:40:22;28.60;;;16.57;;
16450;SDS011;12243;42.708;23.310;2023-02-28T04:42:49;25.83;;;16.77;;
16450;SDS011;12243;42.708;23.310;2023-02-28T04:45:15;26.73;;;17.47;;
16450;SDS011;12243;42.708;23.310;2023-02-28T04:47:42;27.57;;;16.87;;
16450;SDS011;12243;42.708;23.310;2023-02-28T04:50:10;25.13;;;16.73;;
16450;SDS011;12243;42.708;23.310;2023-02-28T04:52:37;29.87;;;17.10;;
16450;SDS011;12243;42.708;23.310;2023-02-28T04:55:04;31.97;;;18.17;;
16450;SDS011;12243;42.708;23.310;2023-02-28T04:57:33;39.20;;;19.77;;
16450;SDS011;12243;42.708;23.310;2023-02-28T05:00:00;43.47;;;26.03;;
16450;SDS011;12243;42.708;23.310;2023-02-28T05:02:33;51.30;;;24.70;;
16450;SDS011;12243;42.708;23.310;2023-02-28T05:05:00;45.63;;;25.77;;
16450;SDS011;12243;42.708;23.310;2023-02-28T05:07:27;46.70;;;25.07;;
16450;SDS011;12243;42.708;23.310;2023-02-28T05:09:54;50.37;;;25.50;;
16450;SDS011;12243;42.708;23.310;2023-02-28T05:12:21;51.57;;;26.53;;
16450;SDS011;12243;42.708;23.310;2023-02-28T05:14:49;50.17;;;26.43;;
16450;SDS011;12243;42.708;23.310;2023-02-28T05:17:16;54.37;;;27.03;;
16450;SDS011;12243;42.708;23.310;2023-02-28T05:19:43;55.43;;;27.47;;
16450;SDS011;12243;42.708;23.310;2023-02-28T05:22:13;54.67;;;30.10;;
16450;SDS011;12243;42.708;23.310;2023-02-28T05:24:41;50.37;;;28.63;;
16450;SDS011;12243;42.708;23.310;2023-02-28T05:27:08;62.33;;;30.60;;
16450;SDS011;12243;42.708;23.310;2023-02-28T05:29:35;52.13;;;28.73;;
16450;SDS011;12243;42.708;23.310;2023-02-28T05:32:09;60.83;;;30.93;;
16450;SDS011;12243;42.708;23.310;2023-02-28T05:34:37;68.40;;;35.17;;
16450;SDS011;12243;42.708;23.310;2023-02-28T05:37:04;71.03;;;37.80;;
16450;SDS011;12243;42.708;23.310;2023-02-28T05:39:31;74.40;;;36.73;;
16450;SDS011;12243;42.708;23.310;2023-02-28T05:41:58;77.20;;;36.70;;
16450;SDS011;12243;42.708;23.310;2023-02-28T05:44:25;68.40;;;35.17;;
16450;SDS011;12243;42.708;23.310;2023-02-28T05:46:52;66.47;;;34.77;;
16450;SDS011;12243;42.708;23.310;2023-02-28T05:49:20;73.77;;;38.07;;
16450;SDS011;12243;42.708;23.310;2023-02-28T05:51:47;73.80;;;38.60;;
16450;SDS011;12243;42.708;23.310;2023-02-28T05:54:14;70.70;;;33.73;;
16450;SDS011;12243;42.708;23.310;2023-02-28T05:56:41;67.83;;;34.43;;
16450;SDS011;12243;42.708;23.310;2023-02-28T05:59:19;59.40;;;30.93;;
16450;SDS011;12243;42.708;23.310;2023-02-28T06:01:46;56.43;;;29.23;;
16450;SDS011;12243;42.708;23.310;2023-02-28T06:04:14;55.40;;;30.13;;
16450;SDS011;12243;42.708;23.310;2023-02-28T06:06:45;59.00;;;30.83;;
16450;SDS011;12243;42.708;23.310;2023-02-28T06:09:12;50.43;;;27.97;;
16450;SDS011;12243;42.708;23.310;2023-02-28T06:11:40;51.20;;;27.40;;
16450;SDS011;12243;42.708;23.310;2023-02-28T06:14:07;55.83;;;28.63;;
16450;SDS011;12243;42.708;23.310;2023-02-28T06:16:40;49.60;;;27.87;;
16450;SDS011;12243;42.708;23.310;2023-02-28T06:19:08;55.87;;;27.83;;
16450;SDS011;12243;42.708;23.310;2023-02-28T06:21:36;56.93;;;27.30;;
16450;SDS011;12243;42.708;23.310;2023-02-28T06:24:05;48.80;;;27.53;;
16450;SDS011;12243;42.708;23.310;2023-02-28T06:26:32;54.30;;;27.67;;
16450;SDS011;12243;42.708;23.310;2023-02-28T06:28:59;51.47;;;28.57;;
16450;SDS011;12243;42.708;23.310;2023-02-28T06:31:27;50.60;;;27.90;;
16450;SDS011;12243;42.708;23.310;2023-02-28T06:33:54;48.73;;;26.83;;
16450;SDS011;12243;42.708;23.310;2023-02-28T06:36:22;49.83;;;27.33;;
16450;SDS011;12243;42.708;23.310;2023-02-28T06:38:49;45.27;;;26.43;;
16450;SDS011;12243;42.708;23.310;2023-02-28T06:41:21;49.60;;;28.23;;
16450;SDS011;12243;42.708;23.310;2023-02-28T06:43:49;61.20;;;34.40;;
16450;SDS011;12243;42.708;23.310;2023-02-28T06:46:16;62.60;;;36.50;;
16450;SDS011;12243;42.708;23.310;2023-02-28T06:48:43;68.57;;;37.10;;
16450;SDS011;12243;42.708;23.310;2023-02-28T06:51:11;67.67;;;36.60;;
16450;SDS011;12243;42.708;23.310;2023-02-28T06:53:40;64.80;;;36.17;;
16450;SDS011;12243;42.708;23.310;2023-02-28T06:56:08;54.00;;;31.20;;
16450;SDS011;12243;42.708;23.310;2023-02-28T06:58:38;50.07;;;29.43;;
16450;SDS011;12243;42.708;23.310;2023-02-28T07:01:05;43.37;;;27.60;;
16450;SDS011;12243;42.708;23.310;2023-02-28T07:03:32;41.20;;;25.07;;
16450;SDS011;12243;42.708;23.310;2023-02-28T07:06:01;40.43;;;25.07;;
16450;SDS011;12243;42.708;23.310;2023-02-28T07:08:29;42.40;;;24.53;;
16450;SDS011;12243;42.708;23.310;2023-02-28T07:10:56;41.80;;;25.00;;
16450;SDS011;12243;42.708;23.310;2023-02-28T07:13:23;47.13;;;26.03;;
16450;SDS011;12243;42.708;23.310;2023-02-28T07:15:55;41.43;;;24.37;;
16450;SDS011;12243;42.708;23.310;2023-02-28T07:18:24;41.83;;;24.23;;
16450;SDS011;12243;42.708;23.310;2023-02-28T07:20:51;39.30;;;23.17;;
16450;SDS011;12243;42.708;23.310;2023-02-28T07:23:19;38.97;;;23.33;;
16450;SDS011;12243;42.708;23.310;2023-02-28T07:25:46;34.73;;;23.20;;
16450;SDS011;12243;42.708;23.310;2023-02-28T07:28:13;33.83;;;22.67;;
16450;SDS011;12243;42.708;23.310;2023-02-28T07:30:40;35.53;;;22.83;;
16450;SDS011;12243;42.708;23.310;2023-02-28T07:33:09;37.67;;;22.27;;
16450;SDS011;12243;42.708;23.310;2023-02-28T07:35:36;28.77;;;20.93;;
16450;SDS011;12243;42.708;23.310;2023-02-28T07:38:03;35.30;;;23.50;;
16450;SDS011;12243;42.708;23.310;2023-02-28T07:40:32;32.47;;;22.53;;
16450;SDS011;12243;42.708;23.310;2023-02-28T07:43:00;32.80;;;22.67;;
16450;SDS011;12243;42.708;23.310;2023-02-28T07:45:27;32.90;;;22.93;;
16450;SDS011;12243;42.708;23.310;2023-02-28T07:47:55;38.17;;;23.63;;
16450;SDS011;12243;42.708;23.310;2023-02-28T07:50:24;33.07;;;22.03;;
16450;SDS011;12243;42.708;23.310;2023-02-28T07:52:50;34.07;;;22.00;;
16450;SDS011;12243;42.708;23.310;2023-02-28T07:55:17;35.97;;;23.03;;
16450;SDS011;12243;42.708;23.310;2023-02-28T07:57:44;33.63;;;23.30;;
16450;SDS011;12243;42.708;23.310;2023-02-28T08:00:12;35.33;;;24.47;;
16450;SDS011;12243;42.708;23.310;2023-02-28T08:02:39;35.73;;;24.50;;
16450;SDS011;12243;42.708;23.310;2023-02-28T08:05:07;33.67;;;23.47;;
16450;SDS011;12243;42.708;23.310;2023-02-28T08:07:35;31.03;;;22.10;;
16450;SDS011;12243;42.708;23.310;2023-02-28T08:10:03;33.53;;;23.63;;
16450;SDS011;12243;42.708;23.310;2023-02-28T08:12:31;33.80;;;23.00;;
16450;SDS011;12243;42.708;23.310;2023-02-28T08:14:58;33.50;;;21.83;;
16450;SDS011;12243;42.708;23.310;2023-02-28T08:17:25;31.10;;;21.50;;
16450;SDS011;12243;42.708;23.310;2023-02-28T08:19:52;33.57;;;22.60;;
16450;SDS011;12243;42.708;23.310;2023-02-28T08:22:19;31.30;;;20.90;;
16450;SDS011;12243;42.708;23.310;2023-02-28T08:24:47;25.33;;;20.93;;
16450;SDS011;12243;42.708;23.310;2023-02-28T08:27:14;32.87;;;22.30;;
16450;SDS011;12243;42.708;23.310;2023-02-28T08:29:41;30.47;;;23.03;;
16450;SDS011;12243;42.708;23.310;2023-02-28T08:32:08;33.87;;;23.50;;
16450;SDS011;12243;42.708;23.310;2023-02-28T08:34:35;34.97;;;22.97;;
16450;SDS011;12243;42.708;23.310;2023-02-28T08:37:05;32.63;;;23.23;;
16450;SDS011;12243;42.708;23.310;2023-02-28T08:39:33;31.17;;;23.87;;
16450;SDS011;12243;42.708;23.310;2023-02-28T08:42:02;35.47;;;23.97;;
16450;SDS011;12243;42.708;23.310;2023-02-28T08:44:29;33.10;;;23.07;;
16450;SDS011;12243;42.708;23.310;2023-02-28T08:46:56;36.27;;;25.53;;
16450;SDS011;12243;42.708;23.310;2023-02-28T08:49:23;36.53;;;25.03;;
16450;SDS011;12243;42.708;23.310;2023-02-28T08:51:50;32.40;;;23.93;;
16450;SDS011;12243;42.708;23.310;2023-02-28T08:54:17;37.43;;;24.87;;
16450;SDS011;12243;42.708;23.310;2023-02-28T08:56:44;32.63;;;24.57;;
16450;SDS011;12243;42.708;23.310;2023-02-28T08:59:13;41.10;;;27.13;;
16450;SDS011;12243;42.708;23.310;2023-02-28T09:01:40;40.83;;;28.63;;
16450;SDS011;12243;42.708;23.310;2023-02-28T09:04:08;47.87;;;30.13;;
16450;SDS011;12243;42.708;23.310;2023-02-28T09:06:36;40.90;;;30.17;;
16450;SDS011;12243;42.708;23.310;2023-02-28T09:09:03;44.57;;;29.87;;
16450;SDS011;12243;42.708;23.310;2023-02-28T09:11:32;47.20;;;31.60;;
16450;SDS011;12243;42.708;23.310;2023-02-28T09:14:00;46.83;;;30.73;;
16450;SDS011;12243;42.708;23.310;2023-02-28T09:16:30;44.67;;;30.90;;
16450;SDS011;12243;42.708;23.310;2023-02-28T09:18:58;47.27;;;32.07;;
16450;SDS011;12243;42.708;23.310;2023-02-28T09:21:25;49.47;;;31.23;;
16450;SDS011;12243;42.708;23.310;2023-02-28T09:23:52;47.13;;;29.37;;
16450;SDS011;12243;42.708;23.310;2023-02-28T09:26:20;46.50;;;30.70;;
16450;SDS011;12243;42.708;23.310;2023-02-28T09:28:48;44.57;;;31.53;;
16450;SDS011;12243;42.708;23.310;2023-02-28T09:31:16;51.93;;;33.57;;
16450;SDS011;12243;42.708;23.310;2023-02-28T09:33:48;50.20;;;32.83;;
16450;SDS011;12243;42.708;23.310;2023-02-28T09:36:16;46.87;;;31.17;;
16450;SDS011;12243;42.708;23.310;2023-02-28T09:38:44;49.60;;;31.57;;
16450;SDS011;12243;42.708;23.310;2023-02-28T09:41:13;41.53;;;28.63;;
16450;SDS011;12243;42.708;23.310;2023-02-28T09:43:43;46.77;;;30.43;;
16450;SDS011;12243;42.708;23.310;2023-02-28T09:46:17;45.77;;;29.77;;
16450;SDS011;12243;42.708;23.310;2023-02-28T09:48:54;44.80;;;28.57;;
16450;SDS011;12243;42.708;23.310;2023-02-28T09:54:12;43.30;;;28.33;;
16450;SDS011;12243;42.708;23.310;2023-02-28T09:56:44;39.27;;;24.87;;
16450;SDS011;12243;42.708;23.310;2023-02-28T09:59:20;40.47;;;26.00;;
16450;SDS011;12243;42.708;23.310;2023-02-28T10:02:04;44.67;;;28.00;;
16450;SDS011;12243;42.708;23.310;2023-02-28T10:04:46;40.10;;;22.93;;
16450;SDS011;12243;42.708;23.310;2023-02-28T10:07:22;27.63;;;14.70;;
16450;SDS011;12243;42.708;23.310;2023-02-28T10:10:01;26.57;;;14.70;;
16450;SDS011;12243;42.708;23.310;2023-02-28T10:12:31;46.17;;;20.70;;
16450;SDS011;12243;42.708;23.310;2023-02-28T10:14:59;29.57;;;17.17;;
16450;SDS011;12243;42.708;23.310;2023-02-28T10:17:29;24.77;;;14.80;;
16450;SDS011;12243;42.708;23.310;2023-02-28T10:20:07;36.30;;;16.00;;
16450;SDS011;12243;42.708;23.310;2023-02-28T10:22:40;23.00;;;12.47;;
16450;SDS011;12243;42.708;23.310;2023-02-28T10:25:18;24.97;;;14.20;;
16450;SDS011;12243;42.708;23.310;2023-02-28T10:27:46;27.70;;;13.33;;
16450;SDS011;12243;42.708;23.310;2023-02-28T10:30:13;22.97;;;12.87;;
16450;SDS011;12243;42.708;23.310;2023-02-28T10:32:49;23.47;;;12.20;;
16450;SDS011;12243;42.708;23.310;2023-02-28T10:35:20;19.43;;;13.03;;
16450;SDS011;12243;42.708;23.310;2023-02-28T10:37:50;21.10;;;12.80;;
16450;SDS011;12243;42.708;23.310;2023-02-28T10:40:28;28.57;;;11.70;;
16450;SDS011;12243;42.708;23.310;2023-02-28T10:42:59;24.73;;;12.53;;
16450;SDS011;12243;42.708;23.310;2023-02-28T10:45:28;29.70;;;11.00;;
16450;SDS011;12243;42.708;23.310;2023-02-28T10:47:57;22.43;;;10.47;;
16450;SDS011;12243;42.708;23.310;2023-02-28T10:50:35;25.83;;;11.67;;
16450;SDS011;12243;42.708;23.310;2023-02-28T10:53:14;18.30;;;11.37;;
16450;SDS011;12243;42.708;23.310;2023-02-28T10:55:55;22.37;;;11.50;;
16450;SDS011;12243;42.708;23.310;2023-02-28T10:58:24;29.50;;;12.37;;
16450;SDS011;12243;42.708;23.310;2023-02-28T11:00:53;22.33;;;11.70;;
16450;SDS011;12243;42.708;23.310;2023-02-28T11:03:23;22.33;;;12.97;;
16450;SDS011;12243;42.708;23.310;2023-02-28T11:05:53;24.73;;;12.60;;
16450;SDS011;12243;42.708;23.310;2023-02-28T11:08:21;28.40;;;13.87;;
16450;SDS011;12243;42.708;23.310;2023-02-28T11:10:53;23.00;;;12.93;;
16450;SDS011;12243;42.708;23.310;2023-02-28T11:13:24;24.60;;;14.43;;
16450;SDS011;12243;42.708;23.310;2023-02-28T11:15:54;24.33;;;12.00;;
16450;SDS011;12243;42.708;23.310;2023-02-28T11:18:24;23.87;;;12.70;;
16450;SDS011;12243;42.708;23.310;2023-02-28T11:20:56;21.17;;;13.03;;
16450;SDS011;12243;42.708;23.310;2023-02-28T11:23:26;24.63;;;14.73;;
16450;SDS011;12243;42.708;23.310;2023-02-28T11:25:59;46.37;;;22.00;;
16450;SDS011;12243;42.708;23.310;2023-02-28T11:28:30;23.20;;;13.43;;
16450;SDS011;12243;42.708;23.310;2023-02-28T11:31:00;25.47;;;13.70;;
16450;SDS011;12243;42.708;23.310;2023-02-28T11:33:41;24.93;;;13.77;;
16450;SDS011;12243;42.708;23.310;2023-02-28T11:36:13;22.57;;;12.53;;
16450;SDS011;12243;42.708;23.310;2023-02-28T11:38:42;31.07;;;12.93;;
16450;SDS011;12243;42.708;23.310;2023-02-28T11:41:16;28.27;;;13.47;;
16450;SDS011;12243;42.708;23.310;2023-02-28T11:43:57;17.73;;;11.53;;
16450;SDS011;12243;42.708;23.310;2023-02-28T11:46:35;19.03;;;11.30;;
16450;SDS011;12243;42.708;23.310;2023-02-28T11:49:13;22.83;;;12.43;;
16450;SDS011;12243;42.708;23.310;2023-02-28T11:51:53;18.27;;;11.90;;
16450;SDS011;12243;42.708;23.310;2023-02-28T11:54:28;28.40;;;12.60;;
16450;SDS011;12243;42.708;23.310;2023-02-28T11:57:16;25.73;;;12.77;;
16450;SDS011;12243;42.708;23.310;2023-02-28T11:59:58;26.70;;;11.77;;
16450;SDS011;12243;42.708;23.310;2023-02-28T12:02:41;24.10;;;11.83;;
16450;SDS011;12243;42.708;23.310;2023-02-28T12:05:23;20.77;;;12.03;;
16450;SDS011;12243;42.708;23.310;2023-02-28T12:08:01;30.47;;;12.93;;
16450;SDS011;12243;42.708;23.310;2023-02-28T12:10:41;22.70;;;11.50;;
16450;SDS011;12243;42.708;23.310;2023-02-28T12:13:18;20.73;;;12.03;;
16450;SDS011;12243;42.708;23.310;2023-02-28T12:15:55;25.13;;;11.77;;
16450;SDS011;12243;42.708;23.310;2023-02-28T12:18:50;18.67;;;11.77;;
16450;SDS011;12243;42.708;23.310;2023-02-28T12:21:38;29.03;;;12.37;;
16450;SDS011;12243;42.708;23.310;2023-02-28T12:24:28;18.30;;;10.17;;
16450;SDS011;12243;42.708;23.310;2023-02-28T12:27:16;27.20;;;12.13;;
16450;SDS011;12243;42.708;23.310;2023-02-28T12:29:49;25.63;;;11.97;;
16450;SDS011;12243;42.708;23.310;2023-02-28T12:32:21;23.00;;;11.53;;
16450;SDS011;12243;42.708;23.310;2023-02-28T12:34:54;27.27;;;12.53;;
16450;SDS011;12243;42.708;23.310;2023-02-28T12:37:25;25.63;;;12.90;;
16450;SDS011;12243;42.708;23.310;2023-02-28T12:40:00;22.10;;;13.00;;
16450;SDS011;12243;42.708;23.310;2023-02-28T12:42:31;24.77;;;12.40;;
16450;SDS011;12243;42.708;23.310;2023-02-28T12:45:04;19.37;;;11.60;;
16450;SDS011;12243;42.708;23.310;2023-02-28T12:47:38;29.17;;;10.50;;
16450;SDS011;12243;42.708;23.310;2023-02-28T12:50:10;23.97;;;11.20;;
16450;SDS011;12243;42.708;23.310;2023-02-28T12:52:40;20.90;;;12.40;;
16450;SDS011;12243;42.708;23.310;2023-02-28T12:55:17;17.57;;;10.23;;
16450;SDS011;12243;42.708;23.310;2023-02-28T12:57:52;27.30;;;11.93;;
16450;SDS011;12243;42.708;23.310;2023-02-28T13:00:28;31.80;;;13.30;;
16450;SDS011;12243;42.708;23.310;2023-02-28T13:03:07;26.00;;;11.20;;
16450;SDS011;12243;42.708;23.310;2023-02-28T13:05:56;26.03;;;12.10;;
16450;SDS011;12243;42.708;23.310;2023-02-28T13:08:42;20.03;;;10.63;;
16450;SDS011;12243;42.708;23.310;2023-02-28T13:11:37;24.63;;;12.17;;
16450;SDS011;12243;42.708;23.310;2023-02-28T13:14:15;23.10;;;12.27;;
16450;SDS011;12243;42.708;23.310;2023-02-28T13:16:56;33.57;;;13.80;;
16450;SDS011;12243;42.708;23.310;2023-02-28T13:19:30;24.30;;;14.93;;
16450;SDS011;12243;42.708;23.310;2023-02-28T13:21:58;26.17;;;14.20;;
16450;SDS011;12243;42.708;23.310;2023-02-28T13:24:39;34.23;;;18.63;;
16450;SDS011;12243;42.708;23.310;2023-02-28T13:33:17;33.50;;;16.90;;
16450;SDS011;12243;42.708;23.310;2023-02-28T13:35:50;41.33;;;16.90;;
16450;SDS011;12243;42.708;23.310;2023-02-28T13:38:34;18.33;;;11.63;;
16450;SDS011;12243;42.708;23.310;2023-02-28T13:44:05;15.23;;;10.10;;
16450;SDS011;12243;42.708;23.310;2023-02-28T13:46:35;23.17;;;10.57;;
16450;SDS011;12243;42.708;23.310;2023-02-28T13:49:18;20.00;;;10.37;;
16450;SDS011;12243;42.708;23.310;2023-02-28T13:51:46;19.10;;;10.67;;
16450;SDS011;12243;42.708;23.310;2023-02-28T13:54:17;20.47;;;10.00;;
16450;SDS011;12243;42.708;23.310;2023-02-28T13:56:53;19.43;;;10.53;;
16450;SDS011;12243;42.708;23.310;2023-02-28T13:59:33;16.87;;;9.67;;
16450;SDS011;12243;42.708;23.310;2023-02-28T14:02:26;14.47;;;9.67;;
16450;SDS011;12243;42.708;23.310;2023-02-28T14:05:06;23.93;;;10.47;;
16450;SDS011;12243;42.708;23.310;2023-02-28T14:08:28;18.33;;;10.00;;
16450;SDS011;12243;42.708;23.310;2023-02-28T14:11:02;23.43;;;11.27;;
16450;SDS011;12243;42.708;23.310;2023-02-28T14:13:39;23.50;;;9.83;;
16450;SDS011;12243;42.708;23.310;2023-02-28T14:16:11;18.50;;;9.43;;
16450;SDS011;12243;42.708;23.310;2023-02-28T14:18:40;18.07;;;10.23;;
16450;SDS011;12243;42.708;23.310;2023-02-28T14:21:16;21.03;;;9.57;;
16450;SDS011;12243;42.708;23.310;2023-02-28T14:27:07;21.70;;;10.77;;
16450;SDS011;12243;42.708;23.310;2023-02-28T14:29:58;19.57;;;11.20;;
16450;SDS011;12243;42.708;23.310;2023-02-28T14:32:43;23.60;;;11.73;;
16450;SDS011;12243;42.708;23.310;2023-02-28T14:35:20;25.37;;;11.50;;
16450;SDS011;12243;42.708;23.310;2023-02-28T14:38:03;19.10;;;10.83;;
16450;SDS011;12243;42.708;23.310;2023-02-28T14:40:32;23.47;;;10.43;;
16450;SDS011;12243;42.708;23.310;2023-02-28T14:43:01;22.97;;;10.10;;
16450;SDS011;12243;42.708;23.310;2023-02-28T14:45:31;17.73;;;9.97;;
16450;SDS011;12243;42.708;23.310;2023-02-28T14:48:01;18.60;;;10.63;;
16450;SDS011;12243;42.708;23.310;2023-02-28T14:50:31;17.50;;;11.30;;
16450;SDS011;12243;42.708;23.310;2023-02-28T14:53:00;22.40;;;10.50;;
16450;SDS011;12243;42.708;23.310;2023-02-28T14:55:29;21.83;;;12.97;;
16450;SDS011;12243;42.708;23.310;2023-02-28T14:57:58;23.43;;;11.40;;
16450;SDS011;12243;42.708;23.310;2023-02-28T15:00:28;24.23;;;11.20;;